Terminal Aerodrome Forecast
Issued by NWS

Home | Current Version | Previous Version | Text Only | Print | Product List | Glossary On
Versions: 1 2 3 4 5 6 7 8 9 10 11 12 13 14 15 16 17 18 19 20 21 22 23 24
000
FTUS44 KBMX 192340
TAFEET
TAF
KEET 192340Z 2000/2024 19006KT 4SM -RA BR BKN050 OVC070
      TEMPO 2001/2003 BKN010 OVC040
     FM200300 19006KT 4SM -RA BR OVC010
     FM200700 20005KT 3SM -RA BR OVC007
     FM200800 21005KT 2SM -DZ BR OVC003 PROB30 2010/2014 1/2SM -DZ
      FG
     FM201700 20006KT P6SM OVC010=

USA.gov is the U.S. government's official web portal to all federal, state and local government web resources and services.